createdAt,value
2023-01-05T00:00:38.847Z,8.30
2023-01-05T00:03:07.572Z,8.50
2023-01-05T00:05:35.852Z,8.50
2023-01-05T00:08:04.584Z,8.50
2023-01-05T00:10:50.716Z,8.60
2023-01-05T00:13:40.312Z,8.60
2023-01-05T00:16:33.863Z,8.40
2023-01-05T00:19:20.293Z,8.40
2023-01-05T00:22:07.604Z,8.50
2023-01-05T00:24:38.763Z,8.30
2023-01-05T00:27:15.059Z,8.40
2023-01-05T00:29:43.075Z,8.60
2023-01-05T00:32:11.063Z,8.50
2023-01-05T00:34:46.732Z,8.10
2023-01-05T00:37:15.035Z,8.10
2023-01-05T00:39:43.325Z,8.10
2023-01-05T00:42:11.333Z,8.20
2023-01-05T00:44:41.879Z,8.10
2023-01-05T00:47:09.857Z,8.30
2023-01-05T00:49:40.307Z,8.30
2023-01-05T00:52:08.852Z,8.40
2023-01-05T00:54:39.249Z,8.30
2023-01-05T00:57:07.664Z,8.40
2023-01-05T00:59:37.156Z,8.40
2023-01-05T01:02:07.396Z,8.60
2023-01-05T01:04:41.983Z,8.60
2023-01-05T01:07:10.923Z,8.70
2023-01-05T01:09:41.824Z,8.80
2023-01-05T01:12:09.790Z,8.70
2023-01-05T01:14:38.929Z,8.60
2023-01-05T01:17:07.103Z,8.70
2023-01-05T01:19:36.015Z,8.70
2023-01-05T01:22:04.127Z,8.80
2023-01-05T01:24:32.554Z,8.80
2023-01-05T01:27:01.765Z,8.80
2023-01-05T01:29:30.177Z,8.90
2023-01-05T01:32:01.431Z,9.00
2023-01-05T01:34:30.047Z,8.80
2023-01-05T01:36:59.623Z,8.90
2023-01-05T01:39:31.828Z,8.80
2023-01-05T01:42:04.568Z,8.90
2023-01-05T01:44:47.841Z,8.80
2023-01-05T01:47:28.714Z,8.80
2023-01-05T01:50:03.138Z,8.90
2023-01-05T01:52:32.950Z,9.00
2023-01-05T01:55:02.292Z,8.90
2023-01-05T01:57:30.828Z,8.90
2023-01-05T02:00:01.145Z,8.80
2023-01-05T02:02:30.896Z,8.90
2023-01-05T02:05:03.599Z,8.90
2023-01-05T02:07:34.472Z,9.00
2023-01-05T02:10:03.642Z,9.00
2023-01-05T02:12:40.346Z,9.00
2023-01-05T02:15:45.184Z,9.00
2023-01-05T02:18:47.579Z,8.90
2023-01-05T02:21:38.742Z,8.80
2023-01-05T02:24:34.000Z,8.90
2023-01-05T02:27:04.951Z,9.10
2023-01-05T02:30:11.471Z,9.10
2023-01-05T02:32:56.292Z,9.00
2023-01-05T02:35:48.492Z,9.00
2023-01-05T02:38:29.152Z,8.80
2023-01-05T02:41:00.565Z,8.90
2023-01-05T02:43:29.689Z,9.00
2023-01-05T02:45:57.568Z,8.90
2023-01-05T02:48:26.946Z,8.90
2023-01-05T02:51:01.470Z,9.10
2023-01-05T02:53:37.535Z,9.10
2023-01-05T02:56:10.724Z,9.00
2023-01-05T02:59:03.605Z,8.80
2023-01-05T03:01:40.514Z,8.70
2023-01-05T03:04:13.965Z,8.50
2023-01-05T03:06:49.682Z,8.70
2023-01-05T03:09:23.215Z,8.90
2023-01-05T03:12:36.865Z,9.00
2023-01-05T03:15:18.838Z,9.00
2023-01-05T03:18:07.410Z,8.70
2023-01-05T03:20:41.936Z,8.80
2023-01-05T03:23:31.475Z,8.80
2023-01-05T03:26:26.417Z,8.60
2023-01-05T03:29:20.772Z,8.40
2023-01-05T03:32:31.617Z,8.60
2023-01-05T03:35:27.575Z,8.60
2023-01-05T03:38:19.092Z,8.40
2023-01-05T03:40:52.423Z,8.30
2023-01-05T03:43:21.699Z,8.20
2023-01-05T03:45:58.444Z,8.20
2023-01-05T03:48:29.212Z,8.00
2023-01-05T03:50:57.075Z,7.90
2023-01-05T03:53:27.480Z,7.80
2023-01-05T03:55:55.678Z,7.80
2023-01-05T03:58:25.626Z,7.80
2023-01-05T04:00:53.559Z,8.00
2023-01-05T04:03:29.453Z,7.90
2023-01-05T04:06:00.249Z,7.80
2023-01-05T04:08:30.788Z,8.00
2023-01-05T04:11:15.630Z,8.00
2023-01-05T04:13:48.204Z,8.10
2023-01-05T04:16:17.475Z,8.00
2023-01-05T04:18:45.605Z,8.00
2023-01-05T04:21:16.811Z,7.90
2023-01-05T04:23:48.356Z,7.90
2023-01-05T04:26:16.649Z,8.20
2023-01-05T04:28:49.063Z,8.20
2023-01-05T04:31:21.246Z,8.30
2023-01-05T04:33:50.607Z,8.50
2023-01-05T04:36:22.129Z,8.50
2023-01-05T04:38:50.217Z,8.50
2023-01-05T04:41:18.584Z,8.50
2023-01-05T04:43:52.637Z,8.50
2023-01-05T04:46:21.368Z,8.50
2023-01-05T04:48:54.397Z,8.50
2023-01-05T04:51:22.766Z,8.50
2023-01-05T04:53:51.683Z,8.60
2023-01-05T04:56:23.211Z,8.70
2023-01-05T04:58:51.166Z,8.60
2023-01-05T05:01:19.801Z,8.70
2023-01-05T05:03:53.218Z,8.70
2023-01-05T05:06:23.426Z,8.60
2023-01-05T05:08:52.488Z,8.60
2023-01-05T05:11:21.029Z,8.50
2023-01-05T05:13:50.361Z,8.60
2023-01-05T05:16:18.362Z,8.60
2023-01-05T05:18:48.057Z,8.50
2023-01-05T05:21:20.558Z,8.60
2023-01-05T05:23:48.385Z,8.70
2023-01-05T05:26:16.422Z,8.50
2023-01-05T05:28:46.610Z,8.60
2023-01-05T05:31:16.511Z,8.60
2023-01-05T05:33:44.358Z,8.70
2023-01-05T05:36:12.325Z,8.60
2023-01-05T05:38:40.333Z,8.70
2023-01-05T05:41:13.478Z,8.70
2023-01-05T05:43:41.420Z,8.80
2023-01-05T05:46:12.414Z,8.80
2023-01-05T05:48:40.240Z,8.80
2023-01-05T05:51:08.158Z,8.80
2023-01-05T05:53:36.132Z,8.90
2023-01-05T05:56:04.079Z,9.00
2023-01-05T05:58:32.370Z,9.00
2023-01-05T06:01:00.327Z,9.00
2023-01-05T06:03:28.073Z,8.90
2023-01-05T06:05:55.880Z,8.90
2023-01-05T06:08:24.262Z,9.00
2023-01-05T06:10:51.969Z,9.00
2023-01-05T06:13:19.704Z,9.10
2023-01-05T06:15:47.877Z,9.00
2023-01-05T06:18:16.879Z,9.10
2023-01-05T06:20:46.122Z,9.10
2023-01-05T06:23:13.882Z,9.10
2023-01-05T06:25:41.964Z,9.00
2023-01-05T06:28:12.142Z,9.20
2023-01-05T06:30:41.272Z,9.20
2023-01-05T06:33:09.046Z,9.00
2023-01-05T06:35:39.740Z,8.90
2023-01-05T06:38:07.342Z,8.90
2023-01-05T06:40:35.001Z,9.00
2023-01-05T06:43:02.857Z,8.80
2023-01-05T06:45:33.278Z,8.90
2023-01-05T06:48:01.562Z,8.70
2023-01-05T06:50:30.844Z,8.70
2023-01-05T06:52:59.303Z,8.60
2023-01-05T06:55:27.020Z,8.60
2023-01-05T06:58:00.498Z,8.70
2023-01-05T07:00:29.938Z,8.70
2023-01-05T07:02:57.938Z,8.80
2023-01-05T07:05:25.785Z,8.70
2023-01-05T07:07:53.847Z,8.60
2023-01-05T07:10:22.025Z,8.70
2023-01-05T07:12:54.821Z,8.90
2023-01-05T07:15:32.084Z,8.70
2023-01-05T07:18:02.131Z,8.70
2023-01-05T07:20:30.364Z,8.80
2023-01-05T07:22:58.429Z,8.80
2023-01-05T07:25:38.898Z,8.80
2023-01-05T07:28:07.038Z,8.80
2023-01-05T07:30:47.017Z,8.70
2023-01-05T07:33:27.801Z,8.60
2023-01-05T07:36:06.367Z,8.60
2023-01-05T07:38:40.941Z,8.60
2023-01-05T07:41:09.509Z,8.80
2023-01-05T07:43:57.326Z,8.90
2023-01-05T07:46:27.827Z,9.00
2023-01-05T07:48:55.919Z,9.10
2023-01-05T07:51:23.711Z,9.10
2023-01-05T07:53:51.695Z,9.10
2023-01-05T07:56:19.881Z,9.30
2023-01-05T07:58:48.551Z,9.40
2023-01-05T08:01:18.677Z,9.30
2023-01-05T08:03:52.241Z,9.20
2023-01-05T08:06:34.504Z,9.00
2023-01-05T08:09:45.976Z,8.90
2023-01-05T08:16:06.232Z,9.10
2023-01-05T08:19:23.039Z,9.20
2023-01-05T08:28:33.179Z,9.10
2023-01-05T08:35:23.036Z,9.00
2023-01-05T08:41:45.528Z,9.30
2023-01-05T08:44:51.342Z,9.60
2023-01-05T09:00:49.706Z,10.20
2023-01-05T09:03:24.309Z,10.30
2023-01-05T09:06:02.784Z,10.40
2023-01-05T09:08:32.143Z,10.50
2023-01-05T09:11:28.904Z,10.60
2023-01-05T09:14:06.452Z,10.60
2023-01-05T09:17:08.668Z,10.80
2023-01-05T09:20:16.311Z,11.00
2023-01-05T09:26:28.674Z,11.60
2023-01-05T09:29:10.116Z,11.80
2023-01-05T09:31:56.687Z,11.70
2023-01-05T09:34:40.467Z,11.50
2023-01-05T09:37:20.893Z,11.60
2023-01-05T09:43:33.393Z,11.60
2023-01-05T09:46:06.192Z,11.50
2023-01-05T09:49:12.968Z,11.50
2023-01-05T09:52:03.978Z,11.60
2023-01-05T09:54:38.284Z,12.00
2023-01-05T09:57:22.640Z,12.20
2023-01-05T09:59:54.760Z,12.30
2023-01-05T10:02:38.504Z,12.40
2023-01-05T10:05:09.648Z,12.50
2023-01-05T10:07:50.772Z,12.30
2023-01-05T10:10:31.185Z,12.20
2023-01-05T10:13:04.371Z,12.40
2023-01-05T10:15:44.495Z,12.60
2023-01-05T10:18:18.142Z,12.80
2023-01-05T10:20:50.777Z,12.90
2023-01-05T10:23:43.500Z,12.80
2023-01-05T10:27:23.707Z,12.70
2023-01-05T10:30:05.491Z,12.80
2023-01-05T10:33:26.830Z,12.80
2023-01-05T10:40:43.245Z,13.40
2023-01-05T10:43:50.249Z,13.60
2023-01-05T10:46:52.579Z,13.50
2023-01-05T10:49:29.926Z,13.50
2023-01-05T10:52:21.747Z,13.60
2023-01-05T10:54:53.730Z,13.60
2023-01-05T10:57:41.697Z,13.80
2023-01-05T11:00:32.549Z,13.90
2023-01-05T11:07:32.905Z,13.90
2023-01-05T11:10:33.604Z,13.90
2023-01-05T11:13:56.501Z,13.70
2023-01-05T11:16:32.427Z,13.40
2023-01-05T11:19:07.865Z,13.40
2023-01-05T11:21:46.096Z,13.40
2023-01-05T11:24:28.051Z,13.20
2023-01-05T11:27:57.146Z,13.00
2023-01-05T11:34:10.167Z,13.00
2023-01-05T11:40:40.827Z,12.80
2023-01-05T11:55:03.198Z,13.20
2023-01-05T11:58:02.529Z,13.20
2023-01-05T12:04:18.695Z,13.40
2023-01-05T12:07:30.732Z,13.60
2023-01-05T12:10:03.112Z,13.80
2023-01-05T12:13:01.254Z,13.80
2023-01-05T12:16:04.441Z,13.70
2023-01-05T12:19:10.944Z,13.70
2023-01-05T12:22:30.211Z,13.90
2023-01-05T12:25:14.560Z,14.20
2023-01-05T12:28:39.517Z,15.10
2023-01-05T12:34:45.869Z,16.40
2023-01-05T12:37:46.018Z,16.70
2023-01-05T12:40:47.349Z,16.50
2023-01-05T12:43:48.177Z,15.70
2023-01-05T12:46:40.342Z,15.20
2023-01-05T12:49:18.571Z,14.80
2023-01-05T12:52:07.145Z,14.40
2023-01-05T12:54:45.399Z,14.20
2023-01-05T12:57:18.980Z,14.10
2023-01-05T12:59:54.880Z,14.10
2023-01-05T13:02:34.894Z,14.10
2023-01-05T13:05:24.013Z,13.90
2023-01-05T13:08:40.167Z,13.70
2023-01-05T13:11:32.600Z,13.80
2023-01-05T13:14:16.136Z,13.60
2023-01-05T13:16:57.122Z,13.30
2023-01-05T13:19:35.372Z,13.20
2023-01-05T13:22:24.591Z,13.20
2023-01-05T13:25:12.927Z,13.30
2023-01-05T13:27:56.052Z,13.40
2023-01-05T13:30:26.527Z,13.30
2023-01-05T13:33:17.426Z,13.30
2023-01-05T13:36:33.122Z,13.00
2023-01-05T13:39:13.574Z,13.20
2023-01-05T13:42:05.885Z,12.90
2023-01-05T13:45:10.946Z,13.10
2023-01-05T13:49:03.263Z,13.10
2023-01-05T13:51:44.310Z,13.10
2023-01-05T13:54:20.912Z,13.00
2023-01-05T13:56:50.440Z,13.10
2023-01-05T13:59:46.451Z,12.90
2023-01-05T14:03:06.244Z,12.90
2023-01-05T14:06:09.336Z,12.80
2023-01-05T14:08:40.181Z,12.90
2023-01-05T14:11:17.040Z,12.80
2023-01-05T14:13:54.238Z,12.70
2023-01-05T14:16:46.432Z,12.50
2023-01-05T14:22:34.990Z,12.80
2023-01-05T14:26:06.525Z,13.00
2023-01-05T14:28:34.154Z,13.40
2023-01-05T14:31:26.248Z,13.80
2023-01-05T14:33:58.065Z,14.00
2023-01-05T14:36:40.770Z,14.00
2023-01-05T14:39:25.893Z,14.00
2023-01-05T14:42:01.904Z,13.90
2023-01-05T14:44:58.329Z,13.60
2023-01-05T14:48:10.749Z,13.40
2023-01-05T14:50:50.433Z,13.40
2023-01-05T14:53:31.855Z,13.20
2023-01-05T14:56:06.007Z,13.00
2023-01-05T14:58:41.574Z,12.90
2023-01-05T15:01:21.531Z,12.70
2023-01-05T15:04:09.572Z,12.40
2023-01-05T15:07:23.076Z,12.40
2023-01-05T15:10:08.259Z,12.30
2023-01-05T15:13:14.776Z,12.40
2023-01-05T15:16:16.915Z,12.40
2023-01-05T15:18:58.523Z,12.40
2023-01-05T15:24:56.030Z,12.30
2023-01-05T15:27:39.617Z,12.10
2023-01-05T15:30:10.843Z,11.90
2023-01-05T15:32:54.367Z,11.60
2023-01-05T15:35:54.707Z,11.60
2023-01-05T15:38:36.482Z,11.60
2023-01-05T15:41:21.817Z,11.50
2023-01-05T15:43:58.440Z,11.50
2023-01-05T15:46:34.015Z,11.50
2023-01-05T15:49:04.227Z,11.50
2023-01-05T15:51:33.608Z,11.50
2023-01-05T15:54:05.703Z,11.50
2023-01-05T15:56:41.690Z,11.60
2023-01-05T15:59:29.083Z,11.60
2023-01-05T16:01:57.287Z,11.50
2023-01-05T16:04:34.940Z,11.50
2023-01-05T16:07:06.108Z,11.50
2023-01-05T16:09:40.044Z,11.50
2023-01-05T16:12:24.443Z,11.50
2023-01-05T16:15:05.093Z,11.50
2023-01-05T16:17:35.204Z,11.50
2023-01-05T16:20:13.345Z,11.50
2023-01-05T16:23:01.011Z,11.50
2023-01-05T16:25:33.214Z,11.50
2023-01-05T16:28:04.002Z,11.40
2023-01-05T16:30:40.661Z,11.50
2023-01-05T16:33:15.199Z,11.50
2023-01-05T16:35:47.686Z,11.40
2023-01-05T16:38:23.818Z,11.40
2023-01-05T16:40:51.795Z,11.50
2023-01-05T16:44:01.958Z,11.50
2023-01-05T16:46:41.292Z,11.50
2023-01-05T16:49:32.107Z,11.50
2023-01-05T16:52:01.096Z,11.40
2023-01-05T16:54:39.625Z,11.30
2023-01-05T16:57:38.858Z,11.30
2023-01-05T17:00:35.537Z,11.40
2023-01-05T17:03:26.829Z,11.20
2023-01-05T17:05:56.018Z,11.30
2023-01-05T17:08:28.429Z,11.30
2023-01-05T17:11:01.577Z,11.30
2023-01-05T17:13:43.635Z,11.40
2023-01-05T17:16:13.871Z,11.30
2023-01-05T17:18:41.623Z,11.40
2023-01-05T17:21:15.370Z,11.40
2023-01-05T17:23:47.282Z,11.30
2023-01-05T17:26:22.972Z,11.30
2023-01-05T17:28:52.463Z,11.20
2023-01-05T17:31:20.054Z,11.10
2023-01-05T17:33:50.438Z,11.10
2023-01-05T17:36:27.158Z,11.10
2023-01-05T17:38:54.828Z,11.30
2023-01-05T17:41:25.793Z,11.30
2023-01-05T17:43:53.590Z,11.10
2023-01-05T17:46:28.997Z,11.20
2023-01-05T17:48:59.115Z,11.30
2023-01-05T17:51:29.579Z,11.30
2023-01-05T17:53:58.979Z,11.30
2023-01-05T17:56:29.470Z,11.20
2023-01-05T17:58:59.683Z,11.20
2023-01-05T18:01:27.502Z,11.20
2023-01-05T18:03:55.179Z,11.10
2023-01-05T18:06:30.404Z,11.00
2023-01-05T18:08:58.920Z,11.00
2023-01-05T18:11:26.939Z,10.90
2023-01-05T18:13:54.821Z,10.80
2023-01-05T18:16:23.284Z,10.70
2023-01-05T18:18:51.539Z,10.60
2023-01-05T18:21:21.177Z,10.60
2023-01-05T18:23:51.459Z,10.70
2023-01-05T18:26:19.012Z,10.60
2023-01-05T18:28:46.796Z,10.70
2023-01-05T18:31:16.535Z,10.70
2023-01-05T18:33:44.725Z,10.70
2023-01-05T18:36:14.522Z,10.80
2023-01-05T18:38:42.948Z,10.80
2023-01-05T18:41:11.443Z,10.80
2023-01-05T18:43:41.560Z,10.80
2023-01-05T18:46:09.722Z,10.70
2023-01-05T18:48:37.612Z,10.80
2023-01-05T18:51:08.218Z,10.80
2023-01-05T18:53:39.302Z,10.80
2023-01-05T18:56:09.210Z,10.90
2023-01-05T18:58:37.367Z,10.90
2023-01-05T19:01:17.902Z,10.90
2023-01-05T19:03:47.163Z,10.70
2023-01-05T19:06:19.348Z,10.70
2023-01-05T19:08:50.588Z,10.80
2023-01-05T19:11:28.062Z,10.80
2023-01-05T19:13:58.221Z,10.70
2023-01-05T19:16:30.101Z,10.60
2023-01-05T19:19:05.116Z,10.50
2023-01-05T19:21:34.449Z,10.50
2023-01-05T19:24:04.279Z,10.50
2023-01-05T19:26:33.275Z,10.40
2023-01-05T19:29:02.772Z,10.40
2023-01-05T19:31:30.653Z,10.30
2023-01-05T19:34:01.968Z,10.40
2023-01-05T19:36:35.280Z,10.30
2023-01-05T19:39:10.885Z,10.20
2023-01-05T19:41:40.209Z,10.30
2023-01-05T19:44:08.756Z,10.50
2023-01-05T19:46:36.636Z,10.50
2023-01-05T19:49:04.472Z,10.50
2023-01-05T19:51:32.608Z,10.40
2023-01-05T19:54:04.168Z,10.30
2023-01-05T19:56:33.958Z,10.40
2023-01-05T19:59:04.407Z,10.40
2023-01-05T20:01:34.827Z,10.30
2023-01-05T20:04:03.100Z,10.30
2023-01-05T20:06:34.272Z,10.20
2023-01-05T20:09:04.999Z,10.20
2023-01-05T20:11:40.920Z,10.20
2023-01-05T20:14:24.657Z,10.20
2023-01-05T20:17:05.140Z,10.40
2023-01-05T20:19:34.240Z,10.30
2023-01-05T20:22:03.872Z,10.40
2023-01-05T20:24:33.460Z,10.30
2023-01-05T20:27:04.795Z,10.20
2023-01-05T20:29:32.880Z,10.00
2023-01-05T20:32:05.135Z,10.10
2023-01-05T20:34:36.350Z,10.20
2023-01-05T20:37:07.373Z,10.30
2023-01-05T20:39:37.852Z,10.20
2023-01-05T20:42:05.770Z,10.00
2023-01-05T20:44:36.447Z,10.00
2023-01-05T20:47:11.630Z,10.20
2023-01-05T20:49:45.308Z,10.20
2023-01-05T20:52:15.267Z,10.10
2023-01-05T20:54:42.988Z,9.90
2023-01-05T20:57:10.838Z,9.90
2023-01-05T20:59:39.724Z,10.00
2023-01-05T21:02:21.939Z,9.90
2023-01-05T21:04:51.774Z,10.10
2023-01-05T21:07:20.430Z,9.90
2023-01-05T21:09:49.622Z,9.80
2023-01-05T21:12:17.738Z,9.90
2023-01-05T21:14:45.493Z,9.90
2023-01-05T21:17:13.022Z,9.90
2023-01-05T21:19:40.592Z,9.90
2023-01-05T21:22:08.263Z,9.80
2023-01-05T21:24:36.409Z,9.70
2023-01-05T21:27:04.099Z,9.50
2023-01-05T21:29:31.716Z,9.20
2023-01-05T21:31:59.323Z,9.30
2023-01-05T21:34:26.961Z,9.10
2023-01-05T21:36:54.536Z,9.20
2023-01-05T21:39:25.044Z,9.30
2023-01-05T21:42:11.961Z,9.20
2023-01-05T21:44:40.149Z,9.20
2023-01-05T21:47:08.116Z,9.30
2023-01-05T21:49:36.461Z,9.20
2023-01-05T21:52:23.754Z,9.20
2023-01-05T21:55:09.885Z,9.40
2023-01-05T21:57:38.041Z,9.50
2023-01-05T22:00:06.459Z,9.60
2023-01-05T22:02:34.013Z,9.60
2023-01-05T22:05:01.614Z,9.40
2023-01-05T22:07:29.451Z,9.20
2023-01-05T22:09:57.097Z,9.00
2023-01-05T22:12:24.745Z,8.90
2023-01-05T22:14:52.255Z,9.00
2023-01-05T22:17:19.790Z,9.10
2023-01-05T22:19:47.395Z,9.20
2023-01-05T22:22:15.269Z,9.00
2023-01-05T22:24:42.799Z,8.80
2023-01-05T22:27:10.435Z,8.90
2023-01-05T22:29:40.637Z,9.00
2023-01-05T22:32:08.725Z,8.90
2023-01-05T22:34:37.948Z,9.00
2023-01-05T22:37:05.601Z,9.10
2023-01-05T22:39:33.251Z,9.20
2023-01-05T22:42:00.802Z,9.30
2023-01-05T22:44:28.695Z,9.20
2023-01-05T22:46:57.549Z,9.40
2023-01-05T22:49:25.245Z,9.50
2023-01-05T22:51:52.789Z,9.40
2023-01-05T22:54:20.348Z,9.30
2023-01-05T22:56:47.918Z,9.40
2023-01-05T22:59:15.662Z,9.40
2023-01-05T23:01:45.114Z,9.20
2023-01-05T23:04:13.081Z,9.10
2023-01-05T23:06:41.796Z,9.10
2023-01-05T23:09:12.683Z,9.20
2023-01-05T23:11:42.585Z,9.10
2023-01-05T23:14:11.940Z,9.00
2023-01-05T23:16:42.776Z,9.00
2023-01-05T23:19:12.202Z,9.00
2023-01-05T23:21:39.704Z,9.00
2023-01-05T23:24:07.629Z,9.00
2023-01-05T23:26:35.451Z,9.00
2023-01-05T23:29:06.352Z,9.10
2023-01-05T23:31:33.951Z,9.00
2023-01-05T23:34:01.603Z,8.90
2023-01-05T23:36:29.134Z,8.90
2023-01-05T23:38:56.654Z,8.80
2023-01-05T23:41:24.232Z,8.60
2023-01-05T23:43:51.782Z,8.70
2023-01-05T23:46:21.136Z,8.40
2023-01-05T23:48:50.421Z,8.40
2023-01-05T23:51:18.750Z,8.40
2023-01-05T23:53:48.929Z,8.40
2023-01-05T23:56:22.325Z,8.40
2023-01-05T23:58:54.688Z,8.50
